sensor_id;sensor_type;location;lat;lon;timestamp;temperature;humidity
30851;DHT22;17567;48.382;9.102;2022-07-25T00:04:27;19.10;99.90
30851;DHT22;17567;48.382;9.102;2022-07-25T00:09:27;19.00;99.90
30851;DHT22;17567;48.382;9.102;2022-07-25T00:14:28;19.00;99.90
30851;DHT22;17567;48.382;9.102;2022-07-25T00:19:29;19.00;99.90
30851;DHT22;17567;48.382;9.102;2022-07-25T00:24:30;18.80;99.90
30851;DHT22;17567;48.382;9.102;2022-07-25T00:29:31;18.70;99.90
30851;DHT22;17567;48.382;9.102;2022-07-25T00:34:31;18.50;99.90
30851;DHT22;17567;48.382;9.102;2022-07-25T00:39:32;18.40;99.90
30851;DHT22;17567;48.382;9.102;2022-07-25T00:44:33;18.50;99.90
30851;DHT22;17567;48.382;9.102;2022-07-25T00:49:34;18.50;99.90
30851;DHT22;17567;48.382;9.102;2022-07-25T00:54:35;18.50;99.90
30851;DHT22;17567;48.382;9.102;2022-07-25T00:59:36;18.50;99.90
30851;DHT22;17567;48.382;9.102;2022-07-25T01:04:37;18.60;99.90
30851;DHT22;17567;48.382;9.102;2022-07-25T01:09:38;18.60;99.90
30851;DHT22;17567;48.382;9.102;2022-07-25T01:14:39;18.60;99.90
30851;DHT22;17567;48.382;9.102;2022-07-25T01:19:39;18.50;99.90
30851;DHT22;17567;48.382;9.102;2022-07-25T01:24:40;18.40;99.90
30851;DHT22;17567;48.382;9.102;2022-07-25T01:29:41;18.40;99.90
30851;DHT22;17567;48.382;9.102;2022-07-25T01:34:42;18.40;99.90
30851;DHT22;17567;48.382;9.102;2022-07-25T01:39:43;18.30;99.90
30851;DHT22;17567;48.382;9.102;2022-07-25T01:44:44;18.30;99.90
30851;DHT22;17567;48.382;9.102;2022-07-25T01:49:45;18.20;99.90
30851;DHT22;17567;48.382;9.102;2022-07-25T01:54:46;18.30;99.90
30851;DHT22;17567;48.382;9.102;2022-07-25T01:59:47;18.40;99.90
30851;DHT22;17567;48.382;9.102;2022-07-25T02:04:48;18.50;99.90
30851;DHT22;17567;48.382;9.102;2022-07-25T02:09:49;18.60;99.90
30851;DHT22;17567;48.382;9.102;2022-07-25T02:14:49;18.50;99.90
30851;DHT22;17567;48.382;9.102;2022-07-25T02:19:50;18.50;99.90
30851;DHT22;17567;48.382;9.102;2022-07-25T02:24:51;18.10;99.90
30851;DHT22;17567;48.382;9.102;2022-07-25T02:29:52;18.10;99.90
30851;DHT22;17567;48.382;9.102;2022-07-25T02:34:52;18.00;99.90
30851;DHT22;17567;48.382;9.102;2022-07-25T02:39:53;18.00;99.90
30851;DHT22;17567;48.382;9.102;2022-07-25T02:44:54;17.80;99.90
30851;DHT22;17567;48.382;9.102;2022-07-25T02:49:56;17.80;99.90
30851;DHT22;17567;48.382;9.102;2022-07-25T02:54:56;17.50;99.90
30851;DHT22;17567;48.382;9.102;2022-07-25T02:59:57;17.40;99.90
30851;DHT22;17567;48.382;9.102;2022-07-25T03:04:58;17.20;99.90
30851;DHT22;17567;48.382;9.102;2022-07-25T03:09:59;17.20;99.90
30851;DHT22;17567;48.382;9.102;2022-07-25T03:15:00;17.20;99.90
30851;DHT22;17567;48.382;9.102;2022-07-25T03:20:01;17.30;99.90
30851;DHT22;17567;48.382;9.102;2022-07-25T03:25:03;17.00;99.90
30851;DHT22;17567;48.382;9.102;2022-07-25T03:30:04;16.80;99.90
30851;DHT22;17567;48.382;9.102;2022-07-25T03:35:05;16.70;99.90
30851;DHT22;17567;48.382;9.102;2022-07-25T03:40:07;16.80;99.90
30851;DHT22;17567;48.382;9.102;2022-07-25T03:45:09;16.90;99.90
30851;DHT22;17567;48.382;9.102;2022-07-25T03:50:10;16.90;99.90
30851;DHT22;17567;48.382;9.102;2022-07-25T03:55:11;16.90;99.90
30851;DHT22;17567;48.382;9.102;2022-07-25T04:00:12;16.90;99.90
30851;DHT22;17567;48.382;9.102;2022-07-25T04:05:13;17.00;99.90
30851;DHT22;17567;48.382;9.102;2022-07-25T04:10:14;17.10;99.90
30851;DHT22;17567;48.382;9.102;2022-07-25T04:15:15;17.20;99.90
30851;DHT22;17567;48.382;9.102;2022-07-25T04:20:16;17.20;99.90
30851;DHT22;17567;48.382;9.102;2022-07-25T04:25:17;17.20;99.90
30851;DHT22;17567;48.382;9.102;2022-07-25T04:30:17;17.40;99.90
30851;DHT22;17567;48.382;9.102;2022-07-25T04:35:18;17.40;99.90
30851;DHT22;17567;48.382;9.102;2022-07-25T04:40:19;17.40;99.90
30851;DHT22;17567;48.382;9.102;2022-07-25T04:45:20;17.40;99.90
30851;DHT22;17567;48.382;9.102;2022-07-25T04:50:21;17.40;99.90
30851;DHT22;17567;48.382;9.102;2022-07-25T04:55:22;17.40;99.90
30851;DHT22;17567;48.382;9.102;2022-07-25T05:00:23;17.40;99.90
30851;DHT22;17567;48.382;9.102;2022-07-25T05:05:24;17.50;99.90
30851;DHT22;17567;48.382;9.102;2022-07-25T05:10:27;17.60;99.90
30851;DHT22;17567;48.382;9.102;2022-07-25T05:15:27;17.80;99.90
30851;DHT22;17567;48.382;9.102;2022-07-25T05:20:28;17.90;99.90
30851;DHT22;17567;48.382;9.102;2022-07-25T05:25:29;18.00;99.90
30851;DHT22;17567;48.382;9.102;2022-07-25T05:40:34;18.60;99.90
30851;DHT22;17567;48.382;9.102;2022-07-25T05:45:34;18.80;99.90
30851;DHT22;17567;48.382;9.102;2022-07-25T05:50:38;18.90;99.90
30851;DHT22;17567;48.382;9.102;2022-07-25T05:55:39;19.10;99.90
30851;DHT22;17567;48.382;9.102;2022-07-25T06:00:40;19.30;99.90
30851;DHT22;17567;48.382;9.102;2022-07-25T06:05:41;19.60;99.90
30851;DHT22;17567;48.382;9.102;2022-07-25T06:10:41;19.80;99.90
30851;DHT22;17567;48.382;9.102;2022-07-25T06:15:42;20.30;99.90
30851;DHT22;17567;48.382;9.102;2022-07-25T06:20:43;20.80;99.90
30851;DHT22;17567;48.382;9.102;2022-07-25T06:25:44;21.20;99.90
30851;DHT22;17567;48.382;9.102;2022-07-25T06:35:49;22.20;99.90
30851;DHT22;17567;48.382;9.102;2022-07-25T06:45:53;23.20;99.90
30851;DHT22;17567;48.382;9.102;2022-07-25T06:50:53;23.20;99.90
30851;DHT22;17567;48.382;9.102;2022-07-25T07:00:57;23.90;99.90
30851;DHT22;17567;48.382;9.102;2022-07-25T07:06:00;24.40;99.90
30851;DHT22;17567;48.382;9.102;2022-07-25T07:11:01;24.40;99.90
30851;DHT22;17567;48.382;9.102;2022-07-25T07:16:02;24.80;99.90
30851;DHT22;17567;48.382;9.102;2022-07-25T07:21:04;24.90;99.90
30851;DHT22;17567;48.382;9.102;2022-07-25T07:26:05;25.40;99.90
30851;DHT22;17567;48.382;9.102;2022-07-25T07:31:06;25.70;99.90
30851;DHT22;17567;48.382;9.102;2022-07-25T07:36:06;26.40;99.90
30851;DHT22;17567;48.382;9.102;2022-07-25T07:41:07;26.80;99.90
30851;DHT22;17567;48.382;9.102;2022-07-25T07:46:08;26.80;99.90
30851;DHT22;17567;48.382;9.102;2022-07-25T07:56:13;27.10;99.90
30851;DHT22;17567;48.382;9.102;2022-07-25T08:06:15;27.90;99.90
30851;DHT22;17567;48.382;9.102;2022-07-25T08:11:16;28.00;99.90
30851;DHT22;17567;48.382;9.102;2022-07-25T08:16:17;28.30;99.90
30851;DHT22;17567;48.382;9.102;2022-07-25T18:20:34;30.70;77.20
30851;DHT22;17567;48.382;9.102;2022-07-25T18:25:36;30.50;78.00
30851;DHT22;17567;48.382;9.102;2022-07-25T18:30:37;30.20;78.30
30851;DHT22;17567;48.382;9.102;2022-07-25T18:35:40;29.10;82.30
30851;DHT22;17567;48.382;9.102;2022-07-25T18:40:40;29.00;82.90
30851;DHT22;17567;48.382;9.102;2022-07-25T18:45:41;29.00;84.20
30851;DHT22;17567;48.382;9.102;2022-07-25T18:50:42;28.90;85.40
30851;DHT22;17567;48.382;9.102;2022-07-25T18:55:43;28.60;91.90
30851;DHT22;17567;48.382;9.102;2022-07-25T19:00:43;28.20;86.30
30851;DHT22;17567;48.382;9.102;2022-07-25T19:05:44;28.20;86.20
30851;DHT22;17567;48.382;9.102;2022-07-25T19:15:46;27.40;85.70
30851;DHT22;17567;48.382;9.102;2022-07-25T19:20:46;27.10;87.40
30851;DHT22;17567;48.382;9.102;2022-07-25T19:25:47;26.70;87.70
30851;DHT22;17567;48.382;9.102;2022-07-25T19:30:48;26.40;89.70
30851;DHT22;17567;48.382;9.102;2022-07-25T19:35:50;26.50;87.90
30851;DHT22;17567;48.382;9.102;2022-07-25T19:40:50;26.60;88.20
30851;DHT22;17567;48.382;9.102;2022-07-25T19:45:51;26.10;87.80
30851;DHT22;17567;48.382;9.102;2022-07-25T19:50:52;25.70;88.80
30851;DHT22;17567;48.382;9.102;2022-07-25T19:55:52;25.60;89.20
30851;DHT22;17567;48.382;9.102;2022-07-25T20:00:53;25.50;89.50
30851;DHT22;17567;48.382;9.102;2022-07-25T20:05:53;25.20;90.30
30851;DHT22;17567;48.382;9.102;2022-07-25T20:10:54;25.20;99.90
30851;DHT22;17567;48.382;9.102;2022-07-25T20:15:55;25.10;99.90
30851;DHT22;17567;48.382;9.102;2022-07-25T20:20:55;25.00;99.90
30851;DHT22;17567;48.382;9.102;2022-07-25T20:36:03;24.50;99.90
30851;DHT22;17567;48.382;9.102;2022-07-25T20:41:04;24.50;99.90
30851;DHT22;17567;48.382;9.102;2022-07-25T20:46:05;24.40;99.90
30851;DHT22;17567;48.382;9.102;2022-07-25T20:51:07;24.20;99.90
30851;DHT22;17567;48.382;9.102;2022-07-25T20:56:07;24.00;99.90
30851;DHT22;17567;48.382;9.102;2022-07-25T21:06:11;23.60;99.90
30851;DHT22;17567;48.382;9.102;2022-07-25T21:11:12;23.20;98.30
30851;DHT22;17567;48.382;9.102;2022-07-25T21:16:12;23.30;99.30
30851;DHT22;17567;48.382;9.102;2022-07-25T21:21:13;23.20;99.90
30851;DHT22;17567;48.382;9.102;2022-07-25T21:26:14;23.10;97.30
30851;DHT22;17567;48.382;9.102;2022-07-25T21:31:16;23.00;94.40
30851;DHT22;17567;48.382;9.102;2022-07-25T22:11:26;22.30;93.90
30851;DHT22;17567;48.382;9.102;2022-07-25T22:16:27;22.30;94.20
30851;DHT22;17567;48.382;9.102;2022-07-25T22:21:28;22.10;94.60
30851;DHT22;17567;48.382;9.102;2022-07-25T22:26:28;22.10;95.50
30851;DHT22;17567;48.382;9.102;2022-07-25T22:31:29;22.00;95.50
30851;DHT22;17567;48.382;9.102;2022-07-25T22:36:29;21.90;95.90
30851;DHT22;17567;48.382;9.102;2022-07-25T22:41:30;22.50;99.90
30851;DHT22;17567;48.382;9.102;2022-07-25T22:46:30;21.70;99.90
30851;DHT22;17567;48.382;9.102;2022-07-25T22:51:31;21.70;99.90
30851;DHT22;17567;48.382;9.102;2022-07-25T23:21:39;21.20;99.50
30851;DHT22;17567;48.382;9.102;2022-07-25T23:26:40;21.00;99.90
30851;DHT22;17567;48.382;9.102;2022-07-25T23:31:40;20.80;99.90
30851;DHT22;17567;48.382;9.102;2022-07-25T23:36:41;20.80;99.90
30851;DHT22;17567;48.382;9.102;2022-07-25T23:41:42;20.90;99.90
30851;DHT22;17567;48.382;9.102;2022-07-25T23:46:42;20.90;99.90
30851;DHT22;17567;48.382;9.102;2022-07-25T23:51:43;21.00;99.90
30851;DHT22;17567;48.382;9.102;2022-07-25T23:56:44;21.10;99.90
